Terminal Aerodrome Forecast
Issued by NWS Los Angeles, CA

Home | Current Version | Previous Version | Text Only | Print | Product List | Glossary On
Versions: 1 2 3 4 5 6 7 8 9 10 11 12 13 14 15 16 17 18 19 20 21 22 23 24 25 26 27 28 29 30
000
FTUS46 KLOX 191742
TAFSMX
TAF
KSMX 191742Z 1918/2018 26004KT P6SM SKC
     FM191900 30008KT P6SM BKN050
     FM200100 VRB03KT P6SM VCSH BKN050
     FM200500 15007KT P6SM -RA OVC025
     FM200900 17007KT 4SM -RA BR OVC008=

USA.gov is the U.S. government's official web portal to all federal, state and local government web resources and services.